Time;durP1;ratioP1;P1;durP2;ratioP2;P2;SDS_P1;SDS_P2;PMS_P1;PMS_P2;Temp;Humidity;BMP_temperature;BMP_pressure;BME280_temperature;BME280_humidity;BME280_pressure;Samples;Min_cycle;Max_cycle;Signal;HPM_P1;HPM_P2
2021/10/06 00:01:50;;;;;;;7.25;5.38;;;16.60;74.60;;;16.24;59.06;94703.75;5051016;28;20688;-82
2021/10/06 00:04:18;;;;;;;6.25;5.30;;;16.50;74.50;;;16.22;59.32;94706.63;5052236;28;20198;-83
2021/10/06 00:06:47;;;;;;;5.65;5.05;;;16.50;74.60;;;16.22;59.27;94708.47;5035937;28;20318;-84
2021/10/06 00:09:14;;;;;;;5.38;4.78;;;16.50;74.70;;;16.21;59.52;94715.59;5035728;28;20195;-83
2021/10/06 00:11:42;;;;;;;5.50;4.80;;;16.50;74.80;;;16.21;59.62;94714.78;5068754;28;20310;-83
2021/10/06 00:14:11;;;;;;;5.45;4.82;;;16.50;74.80;;;16.21;59.49;94712.97;5037317;28;20232;-83
2021/10/06 00:16:39;;;;;;;5.47;4.97;;;16.40;74.90;;;16.22;59.50;94719.03;5018140;28;20575;-82
2021/10/06 00:19:06;;;;;;;5.00;4.50;;;16.50;74.90;;;16.22;59.36;94726.97;5028828;28;20192;-83
2021/10/06 00:21:33;;;;;;;6.32;5.05;;;16.40;74.90;;;16.19;59.72;94719.53;5019546;28;20593;-82
2021/10/06 00:24:02;;;;;;;6.05;4.82;;;16.40;74.90;;;16.20;59.67;94729.03;5019948;28;20207;-83
2021/10/06 00:26:30;;;;;;;5.47;4.90;;;16.40;74.90;;;16.22;59.91;94740.22;5036349;28;20219;-82
2021/10/06 00:28:57;;;;;;;5.80;5.03;;;16.50;75.00;;;16.22;59.47;94741.03;5050269;28;20598;-82
2021/10/06 00:31:24;;;;;;;5.93;4.93;;;16.40;75.00;;;16.22;59.36;94743.69;5035390;28;20238;-83
2021/10/06 00:33:52;;;;;;;5.55;5.00;;;16.40;75.00;;;16.20;59.27;94747.56;5034921;28;20214;-82
2021/10/06 00:36:20;;;;;;;5.28;4.78;;;16.40;75.10;;;16.22;59.91;94750.81;5034626;28;20765;-82
2021/10/06 00:38:48;;;;;;;6.38;5.57;;;16.40;75.00;;;16.17;60.00;94736.44;5048920;28;20649;-82
2021/10/06 00:41:16;;;;;;;5.50;4.72;;;16.40;75.00;;;16.20;60.05;94743.09;5016222;28;20216;-83
2021/10/06 00:43:43;;;;;;;5.93;5.15;;;16.40;75.00;;;16.20;59.77;94736.97;5033823;28;20216;-82
2021/10/06 00:46:10;;;;;;;6.32;5.70;;;16.40;75.10;;;16.20;59.53;94743.09;5017543;28;20276;-83
2021/10/06 00:48:38;;;;;;;6.47;5.60;;;16.40;75.10;;;16.18;60.38;94745.16;5034340;28;20205;-83
2021/10/06 00:51:06;;;;;;;6.53;5.30;;;16.40;75.10;;;16.18;60.25;94742.50;5030970;28;20676;-83
2021/10/06 00:53:34;;;;;;;6.28;5.63;;;16.50;75.10;;;16.16;59.69;94736.63;5031824;28;20224;-83
2021/10/06 00:56:01;;;;;;;5.40;4.88;;;16.40;75.10;;;16.12;60.01;94732.84;5065743;28;20228;-83
2021/10/06 00:58:28;;;;;;;5.47;4.88;;;16.40;75.10;;;16.17;59.85;94746.19;5052019;28;20204;-82
2021/10/06 01:00:55;;;;;;;6.78;5.50;;;16.30;75.00;;;16.15;59.91;94737.69;5022183;28;20215;-83
2021/10/06 01:03:23;;;;;;;5.78;5.18;;;16.40;75.10;;;16.13;60.58;94737.13;5064355;28;20196;-82
2021/10/06 01:05:53;;;;;;;6.25;5.30;;;16.40;75.20;;;16.11;60.31;94734.72;5015044;28;20400;-82
2021/10/06 01:08:20;;;;;;;6.25;5.35;;;16.30;75.10;;;16.08;60.16;94724.56;5015423;28;20215;-82
2021/10/06 01:10:48;;;;;;;5.88;5.05;;;16.30;75.90;;;16.07;60.65;94728.25;5035070;28;20207;-83
2021/10/06 01:13:16;;;;;;;5.47;4.88;;;16.30;75.20;;;16.02;60.60;94730.00;5034328;28;20231;-83
2021/10/06 01:15:45;;;;;;;6.25;5.30;;;16.30;75.20;;;16.02;60.18;94738.72;5034903;28;20192;-82
2021/10/06 01:18:12;;;;;;;6.68;5.13;;;16.30;75.20;;;15.94;60.40;94729.31;5052535;28;20212;-83
2021/10/06 01:20:40;;;;;;;7.88;5.75;;;16.30;75.20;;;15.98;60.43;94733.09;5054651;28;20217;-83
2021/10/06 01:23:07;;;;;;;5.35;4.82;;;16.30;75.20;;;15.94;60.65;94739.88;5036333;28;20211;-83
2021/10/06 01:25:35;;;;;;;5.95;5.07;;;16.30;75.20;;;15.93;60.61;94738.28;5068593;28;20199;-83
2021/10/06 01:28:03;;;;;;;6.43;5.25;;;16.20;75.20;;;15.92;60.64;94739.31;5036863;28;20241;-83
2021/10/06 01:30:31;;;;;;;6.90;5.60;;;16.20;75.20;;;15.89;60.81;94733.66;5052870;28;20249;-83
2021/10/06 01:32:58;;;;;;;6.88;4.95;;;16.20;75.30;;;15.81;60.77;94732.94;5035008;28;20215;-83
2021/10/06 01:35:25;;;;;;;5.65;5.05;;;16.20;75.30;;;15.81;60.53;94732.94;5019683;28;20227;-83
2021/10/06 01:37:53;;;;;;;5.50;4.70;;;16.10;75.30;;;15.82;60.67;94731.94;5019758;28;20195;-82
2021/10/06 01:40:22;;;;;;;5.70;5.05;;;16.10;75.30;;;15.81;60.75;94734.78;5036106;28;20313;-83
2021/10/06 01:42:52;;;;;;;6.35;4.93;;;16.10;75.40;;;15.75;60.70;94738.34;5035660;28;20223;-83
2021/10/06 01:45:26;;;;;;;6.43;5.18;;;16.10;75.40;;;15.80;60.83;94741.91;5065764;28;20262;-82
2021/10/06 01:47:54;;;;;;;6.65;5.07;;;16.20;75.60;;;15.78;61.59;94743.16;5035224;28;20188;-81
2021/10/06 01:50:25;;;;;;;5.80;4.70;;;16.20;75.50;;;15.76;60.57;94740.75;5052792;28;20202;-83
2021/10/06 01:52:54;;;;;;;5.60;5.00;;;16.00;75.50;;;15.76;60.97;94738.09;5034901;28;20226;-83
2021/10/06 01:55:31;;;;;;;6.53;4.57;;;16.00;75.40;;;15.71;60.65;94745.09;5052322;28;20184;-83
2021/10/06 01:58:04;;;;;;;6.28;5.10;;;16.00;75.50;;;15.75;60.62;94755.00;5050544;28;20195;-83
2021/10/06 02:00:31;;;;;;;5.75;5.05;;;16.00;75.50;;;15.75;60.53;94755.00;5035393;28;20204;-83
2021/10/06 02:03:00;;;;;;;5.90;5.07;;;16.00;75.50;;;15.75;60.52;94754.22;5035280;28;20203;-82
2021/10/06 02:05:27;;;;;;;5.45;4.80;;;16.00;75.50;;;15.69;60.79;94740.84;5035407;28;20203;-82
2021/10/06 02:07:54;;;;;;;5.82;4.90;;;16.00;75.50;;;15.76;60.77;94742.56;5035567;28;20191;-83
2021/10/06 02:10:21;;;;;;;6.47;4.68;;;16.00;75.70;;;15.75;60.60;94741.78;5018517;28;20262;-82
2021/10/06 02:12:51;;;;;;;6.05;4.93;;;16.00;75.70;;;15.76;60.63;94743.41;5035503;28;20215;-83
2021/10/06 02:15:19;;;;;;;5.43;4.32;;;16.00;75.70;;;15.77;60.59;94746.84;5035555;28;20572;-82
2021/10/06 02:17:47;;;;;;;5.40;4.68;;;16.00;75.70;;;15.76;60.68;94742.56;5034543;28;20223;-83
2021/10/06 02:20:14;;;;;;;6.60;4.75;;;16.00;75.80;;;15.76;60.88;94740.75;5034989;28;20203;-83
2021/10/06 02:22:43;;;;;;;4.80;4.13;;;16.00;75.80;;;15.74;60.50;94742.03;5051901;28;20222;-83
2021/10/06 02:25:10;;;;;;;4.78;4.20;;;16.00;75.80;;;15.74;60.66;94740.16;5034822;28;20685;-82
2021/10/06 02:27:38;;;;;;;4.13;3.72;;;15.90;75.70;;;15.71;60.54;94732.72;5047920;28;20208;-83
2021/10/06 02:30:07;;;;;;;4.05;3.55;;;15.90;75.60;;;15.72;60.51;94736.97;5043057;28;20210;-83
2021/10/06 02:32:35;;;;;;;4.07;3.67;;;15.90;75.60;;;15.71;60.67;94732.72;5035137;28;20211;-83
2021/10/06 02:35:03;;;;;;;4.47;3.85;;;15.90;75.60;;;15.69;60.99;94735.56;5034527;28;20645;-83
2021/10/06 02:37:30;;;;;;;4.50;3.83;;;15.90;75.60;;;15.67;60.43;94736.81;5051463;28;20211;-82
2021/10/06 02:39:58;;;;;;;3.67;3.38;;;15.90;75.50;;;15.65;60.56;94739.69;5034701;28;20722;-83
2021/10/06 02:42:26;;;;;;;4.03;3.63;;;15.90;75.60;;;15.63;60.72;94744.41;5018717;28;20219;-82
2021/10/06 02:44:53;;;;;;;5.80;3.58;;;15.90;75.60;;;15.62;60.61;94739.34;5035034;28;20203;-82
2021/10/06 02:47:20;;;;;;;5.18;4.05;;;15.90;75.50;;;15.59;60.69;94745.91;5035011;28;20216;-82
2021/10/06 02:49:48;;;;;;;3.88;3.42;;;15.90;75.50;;;15.54;60.92;94743.13;5034253;28;20199;-82
2021/10/06 02:52:16;;;;;;;4.30;3.90;;;15.90;75.60;;;15.53;61.02;94755.53;5019042;28;20211;-82
2021/10/06 02:54:43;;;;;;;4.45;3.65;;;15.80;75.50;;;15.49;60.58;94745.63;5039187;28;20592;-82
2021/10/06 02:57:10;;;;;;;5.05;3.90;;;15.80;75.60;;;15.53;60.96;94754.75;5070580;28;20217;-81
2021/10/06 02:59:38;;;;;;;4.05;3.47;;;15.80;75.60;;;15.48;60.91;94754.63;5039056;28;20199;-83
2021/10/06 03:02:05;;;;;;;4.70;4.10;;;15.90;75.70;;;15.51;60.91;94768.19;5055378;28;20223;-81
2021/10/06 03:04:32;;;;;;;4.25;3.53;;;15.80;75.60;;;15.47;60.98;94753.00;5055343;28;20545;-83
2021/10/06 03:06:59;;;;;;;4.22;3.30;;;15.80;75.70;;;15.50;60.83;94763.09;5044233;28;20247;-82
2021/10/06 03:09:27;;;;;;;5.32;3.38;;;15.80;75.70;;;15.49;60.96;94757.03;5058363;28;20196;-83
2021/10/06 03:11:54;;;;;;;4.38;3.72;;;15.70;75.70;;;15.52;61.32;94763.69;5038471;28;20250;-82
2021/10/06 03:14:23;;;;;;;4.07;3.67;;;15.80;75.80;;;15.51;60.88;94748.88;5038684;28;20227;-83
2021/10/06 03:16:50;;;;;;;3.92;3.63;;;15.80;75.80;;;15.51;60.91;94749.69;5050805;28;20300;-82
2021/10/06 03:19:18;;;;;;;3.70;3.30;;;15.70;75.80;;;15.49;60.99;94756.22;5018547;28;20212;-82
2021/10/06 03:21:45;;;;;;;4.40;3.75;;;15.70;75.80;;;15.47;61.05;94766.22;5051450;28;20605;-83
2021/10/06 03:24:12;;;;;;;4.97;4.03;;;15.70;75.80;;;15.43;61.25;94767.69;5018840;28;20662;-82
2021/10/06 03:26:39;;;;;;;3.88;3.47;;;15.70;75.80;;;15.45;61.15;94774.38;5036586;28;20222;-82
2021/10/06 03:29:07;;;;;;;3.80;3.40;;;15.70;75.80;;;15.48;61.05;94783.69;5037896;28;20206;-82
2021/10/06 03:31:34;;;;;;;3.58;3.28;;;15.70;75.80;;;15.48;61.23;94794.28;5038020;28;20212;-83
2021/10/06 03:34:01;;;;;;;4.53;3.75;;;15.70;75.90;;;15.49;60.80;94787.94;5054620;28;20218;-81
2021/10/06 03:36:29;;;;;;;3.50;3.20;;;15.80;76.00;;;15.46;61.13;94788.38;5033922;28;20693;-82
2021/10/06 03:38:56;;;;;;;3.95;3.55;;;15.70;75.90;;;15.46;61.20;94781.25;5035103;28;20207;-82
2021/10/06 03:41:24;;;;;;;3.97;3.58;;;15.70;75.90;;;15.44;61.25;94778.06;5018344;28;20482;-82
2021/10/06 03:43:51;;;;;;;4.20;3.80;;;15.70;75.90;;;15.49;61.20;94790.56;5059859;28;20240;-82
2021/10/06 03:46:18;;;;;;;4.38;3.92;;;15.70;75.90;;;15.47;61.08;94795.28;5050462;28;20316;-83
2021/10/06 03:48:46;;;;;;;4.40;4.00;;;15.70;75.90;;;15.46;61.08;94791.03;5053346;28;20203;-81
2021/10/06 03:51:13;;;;;;;4.60;4.10;;;15.70;75.80;;;15.47;61.38;94792.66;5029191;28;20212;-81
2021/10/06 03:53:41;;;;;;;4.40;3.97;;;15.70;76.70;;;15.47;60.88;94798.72;5036863;28;20926;-83
2021/10/06 03:56:08;;;;;;;4.72;4.32;;;15.70;75.90;;;15.46;61.33;94801.59;5064484;28;20302;-82
2021/10/06 03:58:35;;;;;;;4.43;4.03;;;15.80;75.90;;;15.40;61.22;94795.38;5020296;28;20199;-83
2021/10/06 04:01:03;;;;;;;4.55;4.10;;;15.70;75.90;;;15.45;61.46;94810.56;5019526;28;20271;-83
2021/10/06 04:03:30;;;;;;;4.40;4.00;;;15.70;76.00;;;15.45;61.09;94811.38;5037539;28;20610;-84
2021/10/06 04:05:58;;;;;;;3.97;3.58;;;15.70;75.90;;;15.43;61.18;94810.78;5053242;28;20218;-83
2021/10/06 04:08:25;;;;;;;4.43;3.97;;;15.70;75.90;;;15.41;61.10;94820.78;5001858;28;20192;-83
2021/10/06 04:10:53;;;;;;;4.28;3.80;;;15.80;76.00;;;15.42;61.14;94817.09;5035059;28;20215;-83
2021/10/06 04:13:20;;;;;;;4.35;3.88;;;15.70;76.00;;;15.37;61.26;94819.63;5020770;28;20234;-82
2021/10/06 04:15:47;;;;;;;3.70;3.30;;;15.70;76.00;;;15.35;61.97;94819.03;5035671;28;20215;-84
2021/10/06 04:18:14;;;;;;;3.80;3.40;;;15.70;76.00;;;15.36;61.23;94824.09;5035749;28;20225;-83
2021/10/06 04:20:42;;;;;;;3.97;3.58;;;15.70;76.10;;;15.39;61.37;94829.97;5035555;28;20202;-83
2021/10/06 04:23:09;;;;;;;4.03;3.33;;;15.70;76.10;;;15.36;61.43;94832.00;5053186;28;20278;-82
2021/10/06 04:25:41;;;;;;;4.05;3.53;;;15.70;76.10;;;15.31;61.41;94825.81;5036050;28;20223;-84
2021/10/06 04:28:09;;;;;;;4.25;3.50;;;15.70;76.10;;;15.34;61.57;94839.38;5053176;28;20251;-84
2021/10/06 04:30:36;;;;;;;4.13;3.70;;;15.60;76.10;;;15.29;61.76;94838.41;5021159;28;20200;-82
2021/10/06 04:33:04;;;;;;;3.97;3.67;;;15.70;76.20;;;15.28;61.71;94847.38;5050279;28;20287;-82
2021/10/06 04:35:31;;;;;;;6.65;3.70;;;15.60;76.20;;;15.27;61.89;94853.69;5026803;28;20257;-83
2021/10/06 04:37:58;;;;;;;4.30;3.90;;;15.60;76.20;;;15.25;62.25;94856.56;5036651;28;20628;-83
2021/10/06 04:40:25;;;;;;;4.25;3.47;;;15.60;76.30;;;15.24;61.85;94856.78;5036700;28;20265;-82
2021/10/06 04:42:53;;;;;;;4.50;3.65;;;15.50;76.30;;;15.20;62.15;94853.78;5053930;28;20227;-84
2021/10/06 04:45:22;;;;;;;4.07;3.63;;;15.60;76.40;;;15.13;62.50;94851.19;5020076;28;20312;-82
2021/10/06 04:47:49;;;;;;;4.32;3.63;;;15.60;76.40;;;15.07;62.99;94860.00;5036883;28;20251;-83
2021/10/06 04:50:16;;;;;;;3.78;3.45;;;15.50;76.50;;;15.09;62.56;94865.91;5053040;28;20227;-83
2021/10/06 04:52:43;;;;;;;4.10;3.40;;;15.50;76.40;;;15.02;62.64;94858.03;5037054;28;20298;-81
2021/10/06 04:55:11;;;;;;;4.22;3.78;;;15.50;76.60;;;14.95;62.76;94861.78;5032777;28;20214;-82
2021/10/06 04:57:38;;;;;;;2.97;2.78;;;15.40;76.60;;;14.91;62.95;94864.06;5052814;28;20273;-82
2021/10/06 05:00:06;;;;;;;3.17;2.90;;;15.40;76.60;;;14.85;62.93;94865.72;5036046;28;20195;-82
2021/10/06 05:02:33;;;;;;;3.85;3.10;;;15.30;76.80;;;14.78;63.27;94861.56;5041645;28;20753;-82
2021/10/06 05:05:00;;;;;;;2.92;2.63;;;15.30;76.80;;;14.77;63.06;94876.59;5050634;28;20241;-84
2021/10/06 05:07:28;;;;;;;3.13;2.83;;;15.20;76.80;;;14.71;63.52;94874.84;5048989;28;20291;-83
2021/10/06 05:09:55;;;;;;;2.60;2.40;;;15.20;76.90;;;14.68;63.31;94876.09;5035624;28;20683;-83
2021/10/06 05:12:23;;;;;;;3.10;2.80;;;15.20;77.00;;;14.64;63.37;94880.13;5078702;28;20223;-83
2021/10/06 05:14:51;;;;;;;3.67;2.78;;;15.10;77.00;;;14.56;63.62;94872.50;5065236;28;20220;-82
2021/10/06 05:17:21;;;;;;;2.90;2.53;;;15.10;77.30;;;14.50;63.58;94873.38;5034669;28;20554;-81
2021/10/06 05:19:48;;;;;;;2.70;2.45;;;15.00;77.20;;;14.50;64.02;94879.47;5050499;28;20207;-83
2021/10/06 05:22:15;;;;;;;2.58;2.30;;;15.00;77.40;;;14.51;63.65;94885.53;5050393;28;20211;-82
2021/10/06 05:24:43;;;;;;;3.03;2.50;;;15.00;77.30;;;14.49;63.65;94893.69;5032437;28;20199;-82
2021/10/06 05:27:10;;;;;;;2.80;2.60;;;14.90;77.40;;;14.48;63.52;94891.28;5050842;28;20709;-82
2021/10/06 05:29:37;;;;;;;3.47;2.63;;;14.90;77.40;;;14.47;63.90;94892.28;5051399;28;20221;-83
2021/10/06 05:32:05;;;;;;;3.85;2.47;;;14.80;77.50;;;14.45;63.75;94897.75;5052044;28;20211;-83
2021/10/06 05:34:33;;;;;;;2.40;2.20;;;14.80;77.60;;;14.44;63.71;94900.63;5081349;28;20715;-83
2021/10/06 05:37:00;;;;;;;2.53;2.30;;;14.80;77.60;;;14.42;64.16;94906.13;5051733;28;20289;-83
2021/10/06 05:39:27;;;;;;;4.65;2.20;;;14.80;77.90;;;14.42;63.90;94906.13;5034500;28;20747;-84
2021/10/06 05:41:54;;;;;;;2.70;2.50;;;14.80;77.90;;;14.37;63.45;94896.22;5068157;28;20222;-84
2021/10/06 05:44:21;;;;;;;7.28;6.47;;;14.70;77.90;;;14.43;63.77;94905.09;5035889;28;20442;-83
2021/10/06 05:46:49;;;;;;;8.57;6.25;;;14.80;78.00;;;14.43;63.62;94909.56;5036091;28;20215;-84
2021/10/06 05:49:16;;;;;;;6.50;5.45;;;14.80;78.00;;;14.44;63.39;94912.00;5035880;28;20204;-84
2021/10/06 05:51:43;;;;;;;4.72;3.58;;;14.70;77.90;;;14.45;63.73;94905.69;5061187;28;20708;-84
2021/10/06 05:54:11;;;;;;;3.55;3.08;;;14.80;78.00;;;14.46;63.65;94909.94;5032497;28;20222;-84
2021/10/06 05:56:39;;;;;;;2.60;2.40;;;14.70;77.90;;;14.49;63.72;94913.97;5033985;28;20278;-85
2021/10/06 05:59:06;;;;;;;3.40;2.97;;;14.70;77.90;;;14.44;63.80;94912.00;5018344;28;20195;-85
2021/10/06 06:01:33;;;;;;;4.25;3.95;;;14.80;78.00;;;14.49;63.80;94921.88;5033940;28;20313;-84
2021/10/06 06:04:01;;;;;;;7.35;6.63;;;14.70;77.90;;;14.50;63.74;94924.34;5030834;28;20204;-83
2021/10/06 06:06:28;;;;;;;19.80;12.75;;;14.80;78.00;;;14.51;63.46;94940.97;5062973;28;20735;-82
2021/10/06 06:08:55;;;;;;;43.20;24.15;;;14.80;78.00;;;14.46;63.47;94925.78;5013297;28;20258;-82
2021/10/06 06:11:23;;;;;;;47.38;25.73;;;14.90;78.10;;;14.51;63.58;94938.31;5021201;28;20310;-81
2021/10/06 06:13:50;;;;;;;14.52;9.60;;;14.80;78.00;;;14.52;63.61;94937.31;5050601;28;21233;-82
2021/10/06 06:16:17;;;;;;;8.23;5.68;;;14.80;78.00;;;14.53;63.78;94937.09;5029414;28;20665;-81
2021/10/06 06:18:45;;;;;;;4.10;3.15;;;14.80;78.00;;;14.53;63.91;94937.09;5050916;28;20290;-82
2021/10/06 06:21:12;;;;;;;4.78;3.78;;;14.80;78.00;;;14.56;63.69;94936.66;5034357;28;20213;-81
2021/10/06 06:23:39;;;;;;;11.07;5.47;;;14.80;78.00;;;14.62;63.53;94945.53;5017578;28;20299;-81
2021/10/06 06:26:08;;;;;;;10.63;5.45;;;14.90;78.10;;;14.65;63.51;94941.69;5033018;28;20269;-82
2021/10/06 06:28:38;;;;;;;8.57;4.55;;;14.90;78.10;;;14.69;63.71;94943.66;5017090;28;20214;-81
2021/10/06 06:31:07;;;;;;;10.55;6.45;;;14.80;78.00;;;14.77;63.73;94944.44;5033142;28;20269;-81
2021/10/06 06:33:35;;;;;;;9.88;5.95;;;14.90;78.10;;;14.80;63.75;94938.72;5016792;28;20211;-81
2021/10/06 06:36:06;;;;;;;7.03;4.78;;;14.90;78.10;;;14.85;63.65;94944.16;5016686;28;20588;-81
2021/10/06 06:38:33;;;;;;;8.18;4.85;;;15.00;78.10;;;14.92;63.64;94944.09;5017880;28;20207;-81
2021/10/06 06:41:01;;;;;;;6.90;4.57;;;15.10;78.20;;;14.94;63.60;94948.16;5034486;28;20229;-81
2021/10/06 06:43:29;;;;;;;4.68;4.10;;;15.00;78.10;;;14.98;63.47;94951.94;5031391;28;20215;-83
2021/10/06 06:45:57;;;;;;;4.80;4.30;;;15.10;78.20;;;15.01;63.55;94956.00;5025368;28;20241;-81
2021/10/06 06:48:24;;;;;;;9.55;7.47;;;15.10;78.20;;;15.01;63.26;94954.16;5019616;28;20195;-81
2021/10/06 06:50:57;;;;;;;3.90;3.45;;;15.10;78.20;;;15.02;63.34;94947.84;5034141;28;20269;-81
2021/10/06 06:53:26;;;;;;;3.40;2.72;;;15.10;78.20;;;15.02;63.40;94958.41;5045538;28;20195;-80
2021/10/06 06:55:55;;;;;;;2.50;2.30;;;15.20;79.10;;;15.00;63.38;94957.84;5032681;28;20254;-82
2021/10/06 06:58:24;;;;;;;2.70;2.47;;;15.20;78.30;;;14.97;63.24;94955.63;5013567;28;20760;-81
2021/10/06 07:00:51;;;;;;;2.83;2.40;;;15.20;78.30;;;15.02;63.46;94960.25;5046944;28;20217;-81
2021/10/06 07:03:20;;;;;;;3.13;2.70;;;15.20;78.30;;;15.06;63.34;94964.06;5047215;28;20215;-82
2021/10/06 07:05:48;;;;;;;4.78;3.70;;;15.20;78.30;;;15.07;63.01;94964.88;5048354;28;20223;-81
2021/10/06 07:08:16;;;;;;;8.90;5.97;;;15.30;78.40;;;15.07;63.38;94968.31;5032899;28;20195;-81
2021/10/06 07:10:43;;;;;;;10.63;6.78;;;15.20;78.30;;;15.01;63.51;94961.28;5057301;28;20223;-82
2021/10/06 07:13:30;;;;;;;6.07;4.45;;;15.30;78.40;;;15.02;63.23;94963.69;5073062;28;20566;-81
2021/10/06 07:15:57;;;;;;;3.33;2.92;;;15.40;78.40;;;15.08;63.29;94977.06;5033650;28;20215;-82
2021/10/06 07:18:25;;;;;;;3.72;3.30;;;15.30;78.40;;;15.05;63.61;94968.53;5033574;28;20237;-80
2021/10/06 07:20:52;;;;;;;2.35;2.13;;;15.40;78.40;;;15.10;63.53;94981.09;5033324;28;20242;-81
2021/10/06 07:23:22;;;;;;;2.92;2.50;;;15.40;78.40;;;15.12;63.44;94979.03;5029969;28;20250;-80
2021/10/06 07:25:50;;;;;;;2.45;2.00;;;15.40;78.40;;;15.12;63.48;94981.66;5033089;28;20343;-80
2021/10/06 07:28:17;;;;;;;2.03;1.92;;;15.40;78.40;;;15.16;63.32;94984.69;5033014;28;20200;-80
2021/10/06 07:30:44;;;;;;;2.22;2.03;;;15.40;78.40;;;15.16;63.64;94993.44;5050172;28;20183;-80
2021/10/06 07:33:11;;;;;;;2.33;1.98;;;15.40;78.40;;;15.11;63.30;94985.38;5047898;28;20606;-80
2021/10/06 07:35:40;;;;;;;5.13;3.60;;;15.40;78.50;;;15.13;63.75;95011.56;5033114;28;20294;-80
2021/10/06 07:38:07;;;;;;;2.20;2.00;;;15.40;78.40;;;15.04;64.32;95003.09;5034705;28;20219;-81
2021/10/06 07:40:34;;;;;;;2.92;1.90;;;15.40;78.40;;;14.95;63.94;95014.97;5037740;28;20326;-81
2021/10/06 07:43:04;;;;;;;1.75;1.65;;;15.40;78.10;;;14.83;64.12;95013.03;5054600;28;20215;-81
2021/10/06 07:45:34;;;;;;;3.25;1.80;;;15.30;78.20;;;14.71;64.18;95015.56;5062216;28;20259;-80
2021/10/06 07:48:02;;;;;;;1.60;1.50;;;15.30;78.20;;;14.61;64.21;95020.50;5031691;28;20315;-80
2021/10/06 07:50:31;;;;;;;1.88;1.52;;;15.20;78.10;;;14.54;64.39;95025.00;5036815;28;20192;-81
2021/10/06 07:52:58;;;;;;;3.88;1.52;;;15.10;78.00;;;14.47;64.19;95030.31;5053647;28;20556;-80
2021/10/06 07:55:25;;;;;;;1.23;1.20;;;15.00;78.10;;;14.41;64.42;95031.16;5037338;28;20576;-81
2021/10/06 07:57:53;;;;;;;1.60;1.50;;;15.00;78.10;;;14.33;64.22;95028.78;5021185;28;20245;-81
2021/10/06 08:00:20;;;;;;;1.50;1.40;;;14.90;78.00;;;14.23;64.01;95045.06;5036925;28;20199;-80
2021/10/06 08:02:47;;;;;;;1.73;1.40;;;14.80;77.60;;;14.15;63.79;95045.34;5036285;28;20223;-79
2021/10/06 08:05:15;;;;;;;1.63;1.52;;;14.70;77.50;;;14.02;64.11;95051.47;5015631;28;20606;-82
2021/10/06 08:07:42;;;;;;;2.95;1.35;;;14.60;77.50;;;13.92;64.25;95047.44;5050573;28;20294;-81
2021/10/06 08:10:11;;;;;;;1.30;1.20;;;14.50;77.50;;;13.82;64.16;95054.16;5033812;28;20235;-81
2021/10/06 08:12:38;;;;;;;2.30;1.50;;;14.40;77.70;;;13.79;63.96;95055.41;5054505;28;20243;-80
2021/10/06 08:15:06;;;;;;;2.33;1.60;;;14.40;77.70;;;13.72;64.55;95058.06;5020772;28;20231;-81
2021/10/06 08:17:33;;;;;;;1.73;1.50;;;14.20;77.60;;;13.69;64.33;95055.84;5036877;28;20223;-81
2021/10/06 08:20:01;;;;;;;2.95;1.40;;;14.20;77.60;;;13.69;64.46;95057.66;5070270;28;20276;-80
2021/10/06 08:22:28;;;;;;;3.17;1.58;;;14.20;77.60;;;13.65;64.63;95061.75;5053455;28;20219;-80
2021/10/06 08:24:57;;;;;;;1.60;1.35;;;14.10;77.90;;;13.65;65.03;95065.19;5053194;28;20222;-83
2021/10/06 08:27:24;;;;;;;1.52;1.38;;;14.00;78.00;;;13.63;64.65;95072.47;5086292;28;20677;-81
2021/10/06 08:29:53;;;;;;;1.33;1.20;;;14.00;78.10;;;13.69;64.68;95074.28;5037207;28;20649;-81
2021/10/06 08:32:21;;;;;;;1.90;1.42;;;14.10;78.30;;;13.69;64.66;95068.22;5035485;28;20227;-81
2021/10/06 08:34:48;;;;;;;1.70;1.40;;;14.10;78.30;;;13.69;64.83;95076.91;5016180;28;20226;-81
2021/10/06 08:37:16;;;;;;;3.80;1.45;;;14.00;78.20;;;13.70;64.65;95078.53;5052361;28;20230;-81
2021/10/06 08:39:43;;;;;;;1.85;1.40;;;14.10;78.30;;;13.70;65.21;95088.28;5036650;28;20282;-81
2021/10/06 08:42:11;;;;;;;1.73;1.60;;;14.00;78.20;;;13.65;64.81;95070.44;5036876;28;20298;-81
2021/10/06 08:44:39;;;;;;;2.25;1.60;;;14.00;79.10;;;13.66;64.95;95087.06;5037118;28;20184;-81
2021/10/06 08:47:07;;;;;;;2.03;1.50;;;14.00;78.50;;;13.67;65.02;95089.50;5051721;28;20243;-81
2021/10/06 08:49:35;;;;;;;2.10;1.67;;;14.00;78.50;;;13.66;65.08;95082.63;5018913;28;20643;-81
2021/10/06 08:52:02;;;;;;;3.00;1.80;;;14.00;78.60;;;13.64;65.56;95087.28;5051643;28;20222;-80
2021/10/06 08:54:31;;;;;;;2.65;1.80;;;14.00;78.60;;;13.58;65.18;95090.75;5016640;28;20665;-80
2021/10/06 08:56:58;;;;;;;3.35;1.80;;;13.90;78.70;;;13.60;65.88;95091.34;5032755;28;20247;-80
2021/10/06 08:59:26;;;;;;;2.88;1.80;;;13.90;78.80;;;13.64;65.82;95103.09;5034763;28;20183;-80
2021/10/06 09:01:53;;;;;;;2.15;1.70;;;14.00;78.90;;;13.66;65.36;95102.88;5018198;28;20273;-79
2021/10/06 09:04:31;;;;;;;2.40;1.90;;;13.90;79.10;;;13.70;65.53;95110.19;5032280;28;20203;-81
2021/10/06 09:07:03;;;;;;;2.53;1.83;;;14.00;79.40;;;13.74;65.85;95114.03;5035572;28;20223;-80
2021/10/06 09:09:36;;;;;;;2.67;1.75;;;14.00;79.60;;;13.82;66.21;95105.09;5045330;28;20192;-80
2021/10/06 09:12:17;;;;;;;3.80;1.90;;;14.00;80.00;;;13.95;66.03;95104.22;5032061;28;20215;-80
2021/10/06 09:14:47;;;;;;;2.55;1.95;;;14.00;80.10;;;14.04;66.39;95118.81;5032205;28;20702;-80
2021/10/06 09:17:18;;;;;;;3.72;1.70;;;14.10;80.10;;;14.14;66.09;95117.56;5018980;28;20315;-80
2021/10/06 09:19:56;;;;;;;3.20;1.85;;;14.20;80.30;;;14.23;66.46;95103.94;5052570;28;20282;-80
2021/10/06 09:22:31;;;;;;;2.22;2.03;;;14.30;80.60;;;14.48;66.27;95110.31;5018407;28;20218;-80
2021/10/06 09:25:05;;;;;;;2.20;1.80;;;14.40;81.10;;;14.63;66.41;95120.59;5072485;28;20664;-80
2021/10/06 09:27:38;;;;;;;3.83;2.03;;;14.50;80.80;;;14.67;66.16;95109.41;5039855;28;20305;-80
2021/10/06 09:30:12;;;;;;;1.92;1.60;;;14.70;80.50;;;14.73;65.63;95121.78;5016079;28;20192;-80
2021/10/06 09:32:43;;;;;;;2.90;1.70;;;14.70;80.20;;;14.79;65.76;95114.00;5032215;28;20219;-80
2021/10/06 09:35:14;;;;;;;2.42;1.52;;;14.70;80.20;;;14.79;65.51;95101.59;5032229;28;20216;-80
2021/10/06 09:37:49;;;;;;;2.95;1.80;;;14.80;80.00;;;14.83;65.38;95100.19;5048546;28;20273;-80
2021/10/06 09:40:20;;;;;;;1.80;1.58;;;14.90;80.00;;;14.87;65.24;95114.56;5053362;28;20537;-79
2021/10/06 09:42:57;;;;;;;2.20;1.90;;;14.90;79.90;;;14.93;65.71;95114.72;5034434;28;20219;-80
2021/10/06 09:45:30;;;;;;;3.10;1.63;;;15.00;80.00;;;14.99;65.48;95117.34;5034801;28;20191;-81
2021/10/06 09:48:10;;;;;;;2.40;1.60;;;15.10;79.70;;;15.02;65.28;95122.16;5051636;28;20191;-80
2021/10/06 09:50:46;;;;;;;3.60;1.80;;;15.10;79.50;;;15.02;64.86;95124.00;5018026;28;20597;-81
2021/10/06 09:53:17;;;;;;;3.20;1.88;;;15.10;79.30;;;15.00;65.02;95123.41;5050765;28;20727;-80
2021/10/06 09:55:48;;;;;;;2.03;1.83;;;15.20;79.20;;;15.01;65.16;95117.94;5018347;28;20269;-80
2021/10/06 09:58:18;;;;;;;2.83;1.80;;;15.20;79.00;;;15.03;64.49;95123.00;5032225;28;20204;-81
2021/10/06 10:00:49;;;;;;;3.00;1.63;;;15.20;78.70;;;14.99;64.52;95122.63;5013703;28;20311;-81
2021/10/06 10:03:18;;;;;;;2.03;1.58;;;15.30;78.70;;;15.01;64.93;95123.22;5046431;28;20689;-80
2021/10/06 10:05:45;;;;;;;2.22;1.80;;;15.20;78.80;;;15.07;64.62;95132.09;5032703;28;20334;-80
2021/10/06 10:08:12;;;;;;;1.95;1.73;;;15.20;78.90;;;15.04;64.69;95130.69;5050560;28;20219;-80
2021/10/06 10:10:39;;;;;;;2.58;1.58;;;15.30;78.90;;;15.07;64.57;95145.31;5030709;28;20258;-80
2021/10/06 10:13:08;;;;;;;2.72;1.63;;;15.30;78.60;;;15.07;64.25;95147.16;5031395;28;20488;-80
2021/10/06 10:15:35;;;;;;;2.38;1.65;;;15.30;78.40;;;15.01;64.03;95140.88;5014955;28;20220;-80
2021/10/06 10:18:05;;;;;;;1.90;1.70;;;15.30;78.40;;;14.98;63.96;95155.34;5031656;28;20669;-79
2021/10/06 10:20:41;;;;;;;2.67;1.33;;;15.30;78.40;;;14.92;63.71;95148.25;5030032;28;20200;-79
2021/10/06 10:23:12;;;;;;;2.92;1.60;;;15.20;78.30;;;14.88;64.02;95147.88;5040162;28;20203;-82